Lafayette, AL (36862)

3:47 PM CDT on August 27, 2016 (GMT -0500)
APRSWXNET | | Change Station

Elev 918 ft 33.02 °N, 85.35 °W | Updated 20 minutes ago

Partly Cloudy
Partly Cloudy
90 °F
Feels Like 96 °F
N
2
Wind Variable Wind from SE
Gusts 9.0 mph

Today
High -- | Low -- °F
--% Chance of Precip.
Yesterday
High -- | Low -- °F
Precip. -- in
Pressure 30.07 in
Visibility 10.0 miles
Clouds Few 6000 ft
Heat Index 96 °F
Dew Point 70 °F
Humidity 52%
Rainfall in
Snow Depth Not available.
6:13 AM 7:12 PM
Waning Crescent, 21% visible
METAR KAUO 271956Z AUTO 09008KT 10SM FEW060 33/19 A3005 RMK AO2 SLP182 T03280189
Pressure 30.07 in
Visibility 10.0 miles
Clouds Few 6000 ft
Heat Index 96 °F
Dew Point 70 °F
Humidity 52%
Rainfall in
Snow Depth Not available.
6:13 AM 7:12 PM
Waning Crescent, 21% visible
METAR KAUO 271956Z AUTO 09008KT 10SM FEW060 33/19 A3005 RMK AO2 SLP182 T03280189

10-Day Weather Forecast

Almanac

Astronomy

Aug. 27, 2016 Rise Set
Actual Time
Civil Twilight
Nautical Twilight
Astronomical Twilight
Moon
Length of Visible Light
Length of Day
Tomorrow will be .
, % of the Moon is Illuminated

Today's Extremes

State Highs State Lows

Community

WunderPhotos

Upload Photos

1,935,438 photos uploaded!

WunderBlog® & News

Nearby

Air Quality

  Air Quality AQ Index Pollutant
Not available.

Snow Depth

Station Depth Elevation

Earthquake Activity

City Distance Mag. Time & Date
Minimum magnitude displayed is 2.5.

Coastal Water Temperatures

Place Temperature

Stations

Nearby Weather Stations

Station Location Temp. Windchill Dew Point Humidity Wind Precip. Elev Updated Type
                   

Watches & Warnings

There are currently no watches in effect.